Time;durP1;ratioP1;P1;durP2;ratioP2;P2;SDS_P1;SDS_P2;PMS_P1;PMS_P2;Temp;Humidity;BMP_temperature;BMP_pressure;BME280_temperature;BME280_humidity;BME280_pressure;Samples;Min_cycle;Max_cycle;Signal;HPM_P1;HPM_P2
2023/12/15 00:00:33;;;;;;;27.65;16.70;;;;;;;3.92;100.00;102389.28;10415695;28;20041;-83
2023/12/15 00:05:34;;;;;;;27.75;16.33;;;;;;;3.99;100.00;102398.53;10384306;28;20091;-84
2023/12/15 00:10:35;;;;;;;26.55;16.30;;;;;;;4.05;100.00;102396.56;10409304;28;20057;-83
2023/12/15 00:15:35;;;;;;;20.83;15.10;;;;;;;4.06;100.00;102393.19;10432469;28;20047;-83
2023/12/15 00:20:36;;;;;;;21.70;13.82;;;;;;;4.09;100.00;102390.91;10422958;28;20040;-84
2023/12/15 00:25:36;;;;;;;30.17;17.05;;;;;;;4.13;100.00;102399.91;10408231;28;20066;-83
2023/12/15 00:30:37;;;;;;;24.80;16.05;;;;;;;4.20;100.00;102404.00;10399369;28;20045;-84
2023/12/15 00:35:37;;;;;;;29.55;14.73;;;;;;;4.29;100.00;102404.00;10377152;28;20069;-83
2023/12/15 00:40:38;;;;;;;25.50;13.98;;;;;;;4.29;100.00;102415.28;10427785;28;20048;-84
2023/12/15 00:45:41;;;;;;;28.05;15.05;;;;;;;4.27;100.00;102419.41;10433608;28;20158;-83
2023/12/15 00:50:42;;;;;;;26.00;15.30;;;;;;;4.33;100.00;102420.00;10441194;28;20041;-83
2023/12/15 00:55:42;;;;;;;21.88;14.55;;;;;;;4.31;100.00;102420.63;10429586;28;20109;-83
2023/12/15 01:00:43;;;;;;;24.35;15.63;;;;;;;4.31;100.00;102426.72;10435096;28;20060;-83
2023/12/15 01:05:43;;;;;;;22.75;16.02;;;;;;;4.35;100.00;102426.25;10428514;28;20044;-84
2023/12/15 01:10:44;;;;;;;20.95;13.90;;;;;;;4.37;100.00;102424.72;10428696;28;20044;-83
2023/12/15 01:15:44;;;;;;;26.30;16.45;;;;;;;4.39;100.00;102433.56;10431870;28;20045;-83
2023/12/15 01:20:45;;;;;;;34.13;18.95;;;;;;;4.37;100.00;102429.91;10429069;28;20040;-84
2023/12/15 01:25:45;;;;;;;25.45;15.70;;;;;;;4.45;100.00;102422.91;10410722;28;20052;-83
2023/12/15 01:30:47;;;;;;;30.73;17.73;;;;;;;4.48;100.00;102440.41;10441172;28;20044;-84
2023/12/15 01:35:47;;;;;;;21.90;15.93;;;;;;;4.47;100.00;102447.28;10428693;28;20105;-84
2023/12/15 01:40:48;;;;;;;31.35;16.40;;;;;;;4.44;100.00;102449.59;10428893;28;20663;-83
2023/12/15 01:45:48;;;;;;;25.88;15.75;;;;;;;4.41;100.00;102452.78;10390230;28;20138;-83
2023/12/15 01:50:49;;;;;;;32.65;17.10;;;;;;;4.44;100.00;102454.78;10414604;28;20033;-83
2023/12/15 01:55:50;;;;;;;27.42;16.08;;;;;;;4.40;100.00;102458.72;10386985;28;20052;-84
2023/12/15 02:00:50;;;;;;;32.40;16.52;;;;;;;4.41;100.00;102467.44;10414439;28;20045;-83
2023/12/15 02:05:51;;;;;;;33.22;16.38;;;;;;;4.44;100.00;102480.69;10385468;28;20048;-84
2023/12/15 02:10:51;;;;;;;29.25;18.75;;;;;;;4.45;100.00;102489.38;10411175;28;20772;-83
2023/12/15 02:15:52;;;;;;;30.15;19.20;;;;;;;4.46;100.00;102493.78;10372910;28;20040;-83
2023/12/15 02:20:52;;;;;;;31.17;17.88;;;;;;;4.49;100.00;102504.47;10373886;28;20106;-84
2023/12/15 02:25:53;;;;;;;27.13;16.85;;;;;;;4.51;100.00;102493.50;10390162;28;20382;-84
2023/12/15 02:30:53;;;;;;;32.55;19.65;;;;;;;4.46;100.00;102491.19;10405397;28;20053;-85
2023/12/15 02:35:53;;;;;;;27.08;17.35;;;;;;;4.44;100.00;102495.31;10428932;28;20060;-84
2023/12/15 02:40:54;;;;;;;37.15;19.67;;;;;;;4.44;100.00;102498.84;10384357;28;20432;-84
2023/12/15 02:45:55;;;;;;;28.85;20.77;;;;;;;4.45;100.00;102502.34;10382286;28;20041;-84
2023/12/15 02:50:55;;;;;;;27.67;18.13;;;;;;;4.47;100.00;102522.47;10372240;28;20039;-84
2023/12/15 02:55:56;;;;;;;33.55;19.13;;;;;;;4.50;100.00;102532.22;10384463;28;20488;-84
2023/12/15 03:00:56;;;;;;;28.40;16.27;;;;;;;4.50;100.00;102545.19;10383382;28;20845;-84
2023/12/15 03:05:57;;;;;;;36.65;19.10;;;;;;;4.52;100.00;102549.78;10411637;28;20037;-84
2023/12/15 03:10:57;;;;;;;28.73;16.15;;;;;;;4.50;100.00;102553.91;10382572;28;20056;-84
2023/12/15 03:16:03;;;;;;;33.50;20.60;;;;;;;4.55;100.00;102563.06;10384599;28;20045;-84
2023/12/15 03:21:04;;;;;;;33.50;20.73;;;;;;;4.55;100.00;102562.13;10383029;28;20061;-83
2023/12/15 03:26:06;;;;;;;39.47;21.45;;;;;;;4.54;100.00;102576.78;10398933;28;20558;-83
2023/12/15 03:31:07;;;;;;;40.85;25.42;;;;;;;4.59;100.00;102577.22;10384466;28;20041;-83
2023/12/15 03:36:07;;;;;;;42.78;25.05;;;;;;;4.61;100.00;102583.47;10367972;28;20052;-83
2023/12/15 03:41:08;;;;;;;41.53;22.95;;;;;;;4.62;100.00;102594.78;10381695;28;20448;-83
2023/12/15 03:46:09;;;;;;;41.55;25.80;;;;;;;4.60;100.00;102605.00;10384074;28;20045;-84
2023/12/15 03:51:09;;;;;;;45.67;25.00;;;;;;;4.62;100.00;102623.31;10383815;28;20045;-83
2023/12/15 03:56:10;;;;;;;48.13;25.67;;;;;;;4.67;100.00;102624.69;10381925;28;20086;-84
2023/12/15 04:01:10;;;;;;;47.60;26.58;;;;;;;4.72;100.00;102625.13;10380640;28;20114;-83
2023/12/15 04:06:11;;;;;;;57.30;29.20;;;;;;;4.72;100.00;102631.25;10391053;28;20041;-83
2023/12/15 04:11:11;;;;;;;44.22;27.05;;;;;;;4.73;100.00;102633.09;10389760;28;20058;-83
2023/12/15 04:16:11;;;;;;;46.50;26.40;;;;;;;4.75;100.00;102643.59;10415978;28;20045;-83
2023/12/15 04:21:12;;;;;;;45.83;25.38;;;;;;;4.78;100.00;102647.44;10402279;28;20190;-83
2023/12/15 04:26:12;;;;;;;46.67;27.58;;;;;;;4.80;100.00;102645.91;10372579;28;20102;-83
2023/12/15 04:31:14;;;;;;;48.65;26.45;;;;;;;4.80;100.00;102650.16;10391343;28;20056;-83
2023/12/15 04:36:19;;;;;;;37.80;21.60;;;;;;;4.82;100.00;102653.81;10376650;28;20539;-83
2023/12/15 04:41:20;;;;;;;55.30;32.03;;;;;;;4.85;100.00;102661.91;10422030;28;20068;-83
2023/12/15 04:46:25;;;;;;;59.22;29.10;;;;;;;4.86;100.00;102668.94;10425357;28;20050;-83
2023/12/15 04:51:26;;;;;;;61.47;32.13;;;;;;;4.89;100.00;102664.03;10432136;28;20037;-83
2023/12/15 04:56:26;;;;;;;62.33;29.42;;;;;;;4.86;100.00;102671.53;10434400;28;20041;-83
2023/12/15 05:01:27;;;;;;;61.40;31.88;;;;;;;4.89;100.00;102679.63;10460397;28;20048;-83
2023/12/15 05:06:27;;;;;;;69.07;35.47;;;;;;;4.91;100.00;102677.19;10437390;28;20029;-83
2023/12/15 05:11:28;;;;;;;75.30;35.13;;;;;;;4.91;100.00;102684.97;10430887;28;20074;-83
2023/12/15 05:16:32;;;;;;;84.65;40.33;;;;;;;4.92;100.00;102686.81;10424898;28;20046;-84
2023/12/15 05:21:32;;;;;;;78.72;39.45;;;;;;;4.95;100.00;102688.00;10406314;28;20056;-83
2023/12/15 05:26:33;;;;;;;87.82;37.95;;;;;;;4.95;100.00;102698.38;10394006;28;20055;-83
2023/12/15 05:31:33;;;;;;;99.50;43.75;;;;;;;4.96;100.00;102707.09;10401132;28;20090;-81
2023/12/15 05:36:34;;;;;;;96.28;47.85;;;;;;;5.00;100.00;102709.25;10392752;28;20193;-82
2023/12/15 05:41:41;;;;;;;92.15;40.97;;;;;;;5.03;100.00;102699.16;10388385;28;20108;-82
2023/12/15 05:46:42;;;;;;;89.57;45.05;;;;;;;5.04;100.00;102721.78;10464752;28;20036;-81
2023/12/15 05:51:47;;;;;;;110.57;45.63;;;;;;;5.04;100.00;102733.81;10420523;28;20036;-83
2023/12/15 05:56:48;;;;;;;102.88;51.42;;;;;;;5.07;100.00;102731.53;10488832;28;20610;-83
2023/12/15 06:01:48;;;;;;;105.90;50.05;;;;;;;5.08;100.00;102736.88;10471760;28;20044;-83
2023/12/15 06:06:49;;;;;;;107.75;44.20;;;;;;;5.09;100.00;102741.31;10457164;28;20087;-82
2023/12/15 06:11:50;;;;;;;99.80;49.70;;;;;;;5.11;100.00;102752.75;10460918;28;20133;-83
2023/12/15 06:16:51;;;;;;;109.78;49.67;;;;;;;5.16;100.00;102749.72;10459976;28;20043;-83
2023/12/15 06:21:52;;;;;;;98.32;44.22;;;;;;;5.15;100.00;102748.78;10427165;28;20045;-84
2023/12/15 06:26:52;;;;;;;105.13;50.28;;;;;;;5.19;100.00;102757.81;10415388;28;20050;-83
2023/12/15 06:31:53;;;;;;;98.88;48.22;;;;;;;5.20;100.00;102772.63;10474095;28;20054;-85
2023/12/15 06:36:53;;;;;;;111.85;49.90;;;;;;;5.20;100.00;102762.22;10425254;28;20198;-83
2023/12/15 06:41:54;;;;;;;111.88;49.72;;;;;;;5.21;100.00;102769.25;10460762;28;20123;-84
2023/12/15 06:46:55;;;;;;;103.70;52.43;;;;;;;5.24;100.00;102787.75;10485287;28;20040;-84
2023/12/15 06:51:57;;;;;;;112.15;49.65;;;;;;;5.23;100.00;102793.69;10484016;28;20821;-83
2023/12/15 06:56:57;;;;;;;109.93;50.47;;;;;;;5.27;100.00;102806.22;10484046;28;20043;-84
2023/12/15 07:01:58;;;;;;;126.57;54.35;;;;;;;5.29;100.00;102810.78;10484139;28;20132;-84
2023/12/15 07:06:58;;;;;;;145.43;54.17;;;;;;;5.31;100.00;102818.75;10484204;28;20037;-83
2023/12/15 07:12:00;;;;;;;127.00;50.55;;;;;;;5.33;100.00;102809.44;10481555;28;20491;-83
2023/12/15 07:17:01;;;;;;;110.82;53.78;;;;;;;5.36;100.00;102814.00;10469005;28;20039;-84
2023/12/15 07:22:01;;;;;;;105.65;54.53;;;;;;;5.41;100.00;102828.34;10516151;28;20071;-83
2023/12/15 07:27:02;;;;;;;91.22;41.90;;;;;;;5.40;100.00;102835.25;10483774;28;20033;-84
2023/12/15 07:32:03;;;;;;;112.85;48.13;;;;;;;5.38;100.00;102849.75;10480879;28;20044;-82
2023/12/15 07:37:03;;;;;;;126.03;50.53;;;;;;;5.42;100.00;102851.91;10469065;28;20037;-82
2023/12/15 07:42:04;;;;;;;72.15;42.67;;;;;;;5.44;100.00;102845.19;10481715;28;20500;-82
2023/12/15 07:47:05;;;;;;;73.57;40.60;;;;;;;5.45;100.00;102856.47;10479503;28;20043;-83
2023/12/15 07:52:05;;;;;;;73.50;39.58;;;;;;;5.48;100.00;102861.97;10443802;28;20416;-84
2023/12/15 07:57:06;;;;;;;55.67;35.58;;;;;;;5.51;100.00;102869.19;10439917;28;20037;-85
2023/12/15 08:02:06;;;;;;;57.92;30.75;;;;;;;5.56;100.00;102867.94;10475316;28;20493;-83
2023/12/15 08:07:07;;;;;;;96.93;39.25;;;;;;;5.59;100.00;102874.34;10492217;28;20111;-86
2023/12/15 08:12:07;;;;;;;78.57;37.22;;;;;;;5.65;100.00;102888.72;10480456;28;20127;-85
2023/12/15 08:17:08;;;;;;;92.97;45.45;;;;;;;5.68;100.00;102886.44;10481329;28;20032;-85
2023/12/15 08:22:08;;;;;;;99.85;47.28;;;;;;;5.72;100.00;102893.75;10480986;28;20132;-86
2023/12/15 08:27:09;;;;;;;89.50;40.75;;;;;;;5.76;100.00;102913.19;10523901;28;20036;-85
2023/12/15 08:32:09;;;;;;;86.35;42.78;;;;;;;5.76;100.00;102908.91;10512844;28;20041;-85
2023/12/15 08:37:10;;;;;;;84.38;43.95;;;;;;;5.83;100.00;102916.53;10446410;28;20525;-85
2023/12/15 08:42:10;;;;;;;91.90;45.28;;;;;;;5.90;100.00;102940.53;10479831;28;20068;-85
2023/12/15 08:47:11;;;;;;;82.07;38.75;;;;;;;5.90;100.00;102950.94;10480831;28;20040;-85
2023/12/15 08:52:11;;;;;;;77.75;39.63;;;;;;;5.95;100.00;102950.66;10458105;28;20387;-85
2023/12/15 08:57:12;;;;;;;99.70;47.13;;;;;;;6.07;100.00;102963.06;10487540;28;20144;-85
2023/12/15 09:02:13;;;;;;;66.70;33.63;;;;;;;6.11;100.00;102967.81;10469935;28;20068;-84
2023/12/15 09:07:14;;;;;;;81.82;40.55;;;;;;;6.14;100.00;102974.22;10489785;28;20068;-86
2023/12/15 09:12:15;;;;;;;85.75;39.85;;;;;;;6.19;100.00;102991.97;10485661;28;20036;-85
2023/12/15 09:17:15;;;;;;;76.38;38.67;;;;;;;6.22;100.00;102989.66;10486068;28;20124;-85
2023/12/15 09:22:16;;;;;;;79.90;39.63;;;;;;;6.26;100.00;102986.59;10485914;28;20548;-85
2023/12/15 09:27:16;;;;;;;70.07;39.95;;;;;;;6.32;100.00;102982.94;10488179;28;20048;-85
2023/12/15 09:32:17;;;;;;;80.18;38.65;;;;;;;6.45;100.00;103003.28;10467852;28;20045;-85
2023/12/15 09:37:17;;;;;;;69.63;36.47;;;;;;;6.54;100.00;103000.66;10485151;28;20123;-85
2023/12/15 09:42:18;;;;;;;87.05;36.55;;;;;;;6.61;100.00;103015.19;10444097;28;20045;-85
2023/12/15 09:47:20;;;;;;;68.38;40.90;;;;;;;6.68;100.00;103022.81;10469114;28;20460;-85
2023/12/15 09:52:21;;;;;;;95.38;42.25;;;;;;;6.72;100.00;103030.16;10451545;28;20036;-84
2023/12/15 09:57:21;;;;;;;63.38;37.22;;;;;;;6.74;100.00;103033.84;10426866;28;20090;-85
2023/12/15 10:02:22;;;;;;;80.68;42.47;;;;;;;6.80;100.00;103046.56;10443876;28;20112;-85
2023/12/15 10:07:22;;;;;;;73.40;36.13;;;;;;;6.89;100.00;103055.25;10443997;28;20045;-85
2023/12/15 10:12:23;;;;;;;78.22;36.20;;;;;;;7.02;100.00;103064.28;10386401;28;20037;-85
2023/12/15 10:17:23;;;;;;;69.93;37.25;;;;;;;7.06;100.00;103061.19;10402820;28;20084;-85
2023/12/15 10:22:24;;;;;;;62.67;35.42;;;;;;;7.22;100.00;103044.44;10401211;28;20120;-84
2023/12/15 10:27:24;;;;;;;60.83;38.58;;;;;;;7.39;100.00;103048.66;10402802;28;20037;-85
2023/12/15 10:32:25;;;;;;;59.03;31.67;;;;;;;7.53;100.00;103050.88;10384664;28;20160;-85
2023/12/15 10:37:27;;;;;;;61.58;31.85;;;;;;;7.49;100.00;103039.28;10401346;28;21060;-84
2023/12/15 10:42:27;;;;;;;56.33;37.17;;;;;;;7.47;100.00;103037.28;10426984;28;20047;-85
2023/12/15 10:47:28;;;;;;;66.40;32.83;;;;;;;7.48;100.00;103031.28;10466309;28;20396;-85
2023/12/15 10:52:32;;;;;;;60.50;32.88;;;;;;;7.44;100.00;103034.38;10465703;28;20056;-85
2023/12/15 10:57:32;;;;;;;46.53;22.15;;;;;;;7.41;100.00;103047.13;10482739;28;20036;-83
2023/12/15 11:02:33;;;;;;;59.90;34.92;;;;;;;7.42;100.00;103046.34;10481818;28;20051;-82
2023/12/15 11:07:34;;;;;;;59.97;36.28;;;;;;;7.45;100.00;103060.59;10466177;28;20044;-83
2023/12/15 11:12:39;;;;;;;57.38;33.88;;;;;;;7.54;100.00;103067.47;10449613;28;20063;-83
2023/12/15 11:17:46;;;;;;;54.95;29.83;;;;;;;7.52;100.00;103051.66;10481276;28;20033;-83
2023/12/15 11:22:51;;;;;;;63.72;35.38;;;;;;;7.52;100.00;103063.78;10479971;28;20036;-82
2023/12/15 11:28:07;;;;;;;47.47;29.42;;;;;;;7.49;100.00;103059.19;10482222;28;20120;-83
2023/12/15 11:33:32;;;;;;;55.33;31.88;;;;;;;7.33;100.00;103073.34;10488139;28;20043;-83
2023/12/15 11:38:32;;;;;;;50.35;28.95;;;;;;;7.35;100.00;103086.53;10472950;28;20041;-83
2023/12/15 11:43:36;;;;;;;65.88;30.67;;;;;;;7.33;100.00;103094.19;10480680;28;20120;-84
2023/12/15 11:48:36;;;;;;;45.00;26.63;;;;;;;7.41;100.00;103097.56;10450765;28;20135;-82
2023/12/15 11:53:41;;;;;;;54.35;32.78;;;;;;;7.43;100.00;103084.66;10481290;28;20058;-83
2023/12/15 11:58:41;;;;;;;41.55;27.77;;;;;;;7.43;100.00;103080.38;10463278;28;20143;-84
2023/12/15 12:03:43;;;;;;;47.20;28.63;;;;;;;7.48;100.00;103080.78;10447337;28;20053;-83
2023/12/15 12:08:43;;;;;;;44.00;25.40;;;;;;;7.47;100.00;103068.53;10481551;28;20098;-84
2023/12/15 12:13:46;;;;;;;44.28;27.88;;;;;;;7.59;100.00;103047.97;10462954;28;20139;-85
2023/12/15 12:18:47;;;;;;;37.63;22.00;;;;;;;7.71;100.00;103040.38;10424271;28;20041;-84
2023/12/15 12:23:48;;;;;;;50.22;30.10;;;;;;;7.73;100.00;103031.94;10424849;28;20033;-85
2023/12/15 12:28:50;;;;;;;45.20;22.80;;;;;;;7.81;100.00;103022.22;10446641;28;20135;-84
2023/12/15 12:33:50;;;;;;;52.88;25.77;;;;;;;7.88;100.00;103032.44;10442755;28;20045;-84
2023/12/15 12:38:51;;;;;;;37.53;22.70;;;;;;;7.91;100.00;103032.72;10425951;28;20037;-83
2023/12/15 12:43:51;;;;;;;41.17;23.58;;;;;;;8.06;100.00;103038.47;10437783;28;20116;-85
2023/12/15 12:48:52;;;;;;;38.70;24.27;;;;;;;8.48;100.00;103029.19;10442280;28;20119;-85
2023/12/15 12:53:53;;;;;;;37.78;20.77;;;;;;;8.64;100.00;103038.47;10478571;28;20123;-85
2023/12/15 12:58:54;;;;;;;26.77;16.97;;;;;;;8.34;100.00;103045.28;10459823;28;21084;-86
2023/12/15 13:03:54;;;;;;;42.47;18.88;;;;;;;8.19;100.00;103050.94;10462830;28;20299;-84
2023/12/15 13:08:55;;;;;;;30.35;20.35;;;;;;;8.11;100.00;103075.38;10464253;28;20373;-85
2023/12/15 13:13:55;;;;;;;25.58;15.93;;;;;;;8.06;100.00;103088.03;10468220;28;20052;-83
2023/12/15 13:18:56;;;;;;;37.80;17.27;;;;;;;8.00;100.00;103084.84;10450399;28;20268;-83
2023/12/15 13:23:56;;;;;;;32.40;16.00;;;;;;;7.98;100.00;103075.94;10451835;28;20043;-86
2023/12/15 13:28:57;;;;;;;32.65;16.08;;;;;;;8.00;100.00;103073.47;10468364;28;20147;-84
2023/12/15 13:33:57;;;;;;;20.45;13.32;;;;;;;8.15;100.00;103063.56;10469609;28;20127;-83
2023/12/15 13:38:58;;;;;;;19.33;12.50;;;;;;;8.22;100.00;103079.00;10398621;28;20099;-84
2023/12/15 13:44:00;;;;;;;17.50;12.82;;;;;;;8.10;100.00;103091.81;10392932;28;20362;-84
2023/12/15 13:49:00;;;;;;;;;;;;;;;8.04;100.00;103089.56;10425424;28;20041;-84
2023/12/15 13:54:01;;;;;;;14.43;8.38;;;;;;;7.89;100.00;103088.13;10431052;28;20335;-84
2023/12/15 13:59:02;;;;;;;13.48;9.32;;;;;;;7.75;100.00;103092.03;10452065;28;20046;-83
2023/12/15 14:04:03;;;;;;;20.38;11.60;;;;;;;7.64;100.00;103077.97;10479676;28;20069;-83
2023/12/15 14:09:09;;;;;;;16.05;8.02;;;;;;;7.64;100.00;103089.31;10452366;28;20067;-85
2023/12/15 14:14:10;;;;;;;17.13;5.80;;;;;;;7.61;100.00;103077.69;10467443;28;20032;-84
2023/12/15 14:19:10;;;;;;;20.85;10.73;;;;;;;7.54;100.00;103101.34;10476079;28;20547;-83
2023/12/15 14:24:11;;;;;;;25.80;11.23;;;;;;;7.39;100.00;103113.78;10440443;28;20052;-92
2023/12/15 14:29:11;;;;;;;16.40;8.60;;;;;;;7.25;100.00;103125.50;10438532;28;20051;-83
2023/12/15 14:34:12;;;;;;;12.27;8.70;;;;;;;7.16;100.00;103130.69;10436097;28;20131;-82
2023/12/15 14:39:12;;;;;;;16.35;9.40;;;;;;;7.07;100.00;103145.41;10481529;28;20381;-83
2023/12/15 14:44:13;;;;;;;20.52;8.57;;;;;;;7.04;100.00;103141.75;10446690;28;20076;-82
2023/12/15 14:49:14;;;;;;;12.10;7.78;;;;;;;7.01;100.00;103163.97;10456898;28;20124;-83
2023/12/15 14:54:15;;;;;;;24.60;10.97;;;;;;;6.94;100.00;103171.94;10482495;28;20046;-84
2023/12/15 14:59:15;;;;;;;18.83;8.40;;;;;;;6.86;100.00;103179.91;10483884;28;20306;-84
2023/12/15 15:04:16;;;;;;;13.43;7.80;;;;;;;6.82;100.00;103185.56;10481941;28;20117;-84
2023/12/15 15:09:20;;;;;;;14.90;7.60;;;;;;;6.78;100.00;103187.69;10482484;28;20058;-85
2023/12/15 15:14:20;;;;;;;17.33;7.82;;;;;;;6.73;100.00;103179.44;10482777;28;20125;-85
2023/12/15 15:19:21;;;;;;;19.45;8.82;;;;;;;6.68;100.00;103178.06;10481214;28;20040;-85
2023/12/15 15:24:22;;;;;;;16.23;8.00;;;;;;;6.63;100.00;103203.63;10484287;28;20507;-84
2023/12/15 15:29:22;;;;;;;9.63;6.43;;;;;;;6.57;100.00;103201.31;10480615;28;20041;-85
2023/12/15 15:34:23;;;;;;;17.90;7.03;;;;;;;6.53;100.00;103208.66;10485694;28;20036;-85
2023/12/15 15:39:24;;;;;;;8.82;6.60;;;;;;;6.50;100.00;103223.94;10485463;28;20142;-84
2023/12/15 15:44:24;;;;;;;11.45;4.95;;;;;;;6.48;100.00;103216.00;10525422;28;20119;-84
2023/12/15 15:49:26;;;;;;;16.70;6.13;;;;;;;6.45;100.00;103213.09;10492387;28;20131;-84
2023/12/15 15:54:27;;;;;;;11.35;4.63;;;;;;;6.30;100.00;103218.56;10465599;28;20704;-84
2023/12/15 15:59:27;;;;;;;10.40;5.22;;;;;;;6.14;100.00;103234.25;10485198;28;20123;-84
2023/12/15 16:04:28;;;;;;;20.23;4.85;;;;;;;6.13;100.00;103232.41;10456675;28;20174;-82
2023/12/15 16:09:28;;;;;;;12.07;6.00;;;;;;;6.13;100.00;103245.41;10487815;28;20032;-83
2023/12/15 16:14:29;;;;;;;26.88;8.43;;;;;;;6.06;100.00;103270.63;10488133;28;20504;-83
2023/12/15 16:19:29;;;;;;;16.45;5.65;;;;;;;6.05;100.00;103271.38;10490683;28;20060;-82
2023/12/15 16:24:30;;;;;;;18.52;6.72;;;;;;;5.98;100.00;103280.16;10488643;28;20131;-84
2023/12/15 16:29:30;;;;;;;16.40;4.88;;;;;;;5.96;100.00;103266.09;10488097;28;20447;-83
2023/12/15 16:34:31;;;;;;;13.23;5.72;;;;;;;5.90;100.00;103278.44;10488921;28;20094;-83
2023/12/15 16:39:32;;;;;;;16.75;6.85;;;;;;;5.94;100.00;103283.19;10471157;28;20054;-83
2023/12/15 16:44:33;;;;;;;18.70;7.47;;;;;;;5.93;100.00;103270.97;10489883;28;20362;-83
2023/12/15 16:49:33;;;;;;;15.13;6.88;;;;;;;5.90;100.00;103268.97;10487776;28;20132;-83
2023/12/15 16:54:34;;;;;;;10.43;5.10;;;;;;;5.93;100.00;103251.09;10488826;28;20548;-85
2023/12/15 16:59:36;;;;;;;22.40;8.30;;;;;;;5.99;100.00;103250.81;10486883;28;20116;-83
2023/12/15 17:04:36;;;;;;;14.13;6.85;;;;;;;5.95;100.00;103252.19;10489672;28;20119;-83
2023/12/15 17:09:38;;;;;;;13.93;5.53;;;;;;;6.02;100.00;103261.56;10427779;28;20420;-83
2023/12/15 17:14:40;;;;;;;23.40;8.67;;;;;;;6.01;100.00;103288.31;10489783;28;20036;-83
2023/12/15 17:19:40;;;;;;;;;;;;;;;5.94;100.00;103284.13;10488397;28;20089;-83
2023/12/15 17:24:40;;;;;;;14.10;5.10;;;;;;;5.87;100.00;103313.75;10487077;28;19920;-83
2023/12/15 17:29:41;;;;;;;14.48;5.97;;;;;;;5.88;100.00;103317.28;10452993;28;20131;-83
2023/12/15 17:34:41;;;;;;;16.48;6.72;;;;;;;5.86;100.00;103340.50;10519959;28;20079;-83
2023/12/15 17:39:42;;;;;;;21.25;8.40;;;;;;;5.87;100.00;103341.44;10484946;28;20112;-82
2023/12/15 17:44:42;;;;;;;18.95;5.47;;;;;;;5.86;100.00;103340.50;10468940;28;20124;-83
2023/12/15 17:49:43;;;;;;;13.95;6.15;;;;;;;5.95;100.00;103321.44;10468318;28;20039;-83
2023/12/15 17:54:43;;;;;;;20.02;9.13;;;;;;;5.97;100.00;103344.25;10486060;28;20060;-83
2023/12/15 17:59:44;;;;;;;17.83;6.80;;;;;;;6.01;100.00;103327.31;10483260;28;20135;-83
2023/12/15 18:04:45;;;;;;;16.73;7.05;;;;;;;5.92;100.00;103329.84;10468893;28;20132;-83
2023/12/15 18:09:46;;;;;;;13.27;6.10;;;;;;;5.84;100.00;103331.59;10483320;28;20040;-83
2023/12/15 18:14:46;;;;;;;14.55;7.50;;;;;;;5.85;100.00;103328.25;10485453;28;20052;-82
2023/12/15 18:19:47;;;;;;;14.40;6.30;;;;;;;5.77;100.00;103331.72;10483442;28;20111;-83
2023/12/15 18:24:47;;;;;;;14.60;5.47;;;;;;;5.70;100.00;103344.81;10464722;28;20143;-82
2023/12/15 18:29:48;;;;;;;17.50;5.22;;;;;;;5.71;100.00;103359.66;10485259;28;20111;-83
2023/12/15 18:34:48;;;;;;;14.90;8.32;;;;;;;5.77;100.00;103334.31;10482410;28;20505;-83
2023/12/15 18:39:53;;;;;;;14.75;7.88;;;;;;;5.77;100.00;103338.59;10484624;28;20086;-83
2023/12/15 18:44:53;;;;;;;14.35;7.18;;;;;;;5.76;100.00;103348.06;10482497;28;20033;-83
2023/12/15 18:49:53;;;;;;;12.27;5.88;;;;;;;5.75;100.00;103374.81;10500245;28;20123;-82
2023/12/15 18:54:56;;;;;;;26.30;8.40;;;;;;;5.68;100.00;103357.66;10483722;28;20136;-83
2023/12/15 18:59:56;;;;;;;;;;;;;;;5.73;100.00;103359.06;10466770;28;20039;-83
2023/12/15 19:04:59;;;;;;;15.27;7.05;;;;;;;5.68;100.00;103364.50;10484020;28;19969;-83
2023/12/15 19:09:59;;;;;;;11.40;5.17;;;;;;;5.65;100.00;103390.16;10440075;28;20064;-83
2023/12/15 19:15:01;;;;;;;21.38;8.88;;;;;;;5.58;100.00;103394.69;10479714;28;20075;-83
2023/12/15 19:20:02;;;;;;;21.65;7.90;;;;;;;5.55;100.00;103399.56;10484610;28;20048;-83
2023/12/15 19:25:03;;;;;;;15.63;8.77;;;;;;;5.65;100.00;103401.50;10464628;28;20040;-83
2023/12/15 19:30:04;;;;;;;17.00;8.23;;;;;;;5.67;100.00;103386.06;10483893;28;20048;-82
2023/12/15 19:35:05;;;;;;;21.13;9.07;;;;;;;5.73;100.00;103378.91;10463659;28;20472;-83
2023/12/15 19:40:06;;;;;;;27.70;8.35;;;;;;;5.69;100.00;103385.47;10464624;28;20237;-83
2023/12/15 19:45:07;;;;;;;19.38;9.45;;;;;;;5.68;100.00;103393.09;10460159;28;20047;-83
2023/12/15 19:50:08;;;;;;;26.52;10.20;;;;;;;5.65;100.00;103400.56;10482698;28;20048;-83
2023/12/15 19:55:09;;;;;;;16.42;8.95;;;;;;;5.61;100.00;103396.72;10481470;28;20048;-82
2023/12/15 20:00:10;;;;;;;17.00;10.15;;;;;;;5.65;100.00;103396.31;10484356;28;20039;-82
2023/12/15 20:05:11;;;;;;;17.92;9.75;;;;;;;5.65;100.00;103403.16;10461759;28;20025;-83
2023/12/15 20:10:11;;;;;;;23.08;10.55;;;;;;;5.62;100.00;103419.34;10479033;28;20571;-82
2023/12/15 20:15:12;;;;;;;17.98;10.05;;;;;;;5.61;100.00;103426.97;10480559;28;20124;-83
2023/12/15 20:20:13;;;;;;;23.88;12.18;;;;;;;5.59;100.00;103443.31;10463294;28;20047;-83
2023/12/15 20:25:13;;;;;;;21.00;9.60;;;;;;;5.54;100.00;103462.66;10460712;28;20067;-84
2023/12/15 20:30:14;;;;;;;20.35;11.27;;;;;;;5.57;100.00;103460.41;10480521;28;20103;-83
2023/12/15 20:35:15;;;;;;;25.02;10.55;;;;;;;5.59;100.00;103477.09;10482044;28;20045;-83
2023/12/15 20:40:16;;;;;;;20.92;10.20;;;;;;;5.57;100.00;103465.59;10479683;28;20174;-83
2023/12/15 20:45:19;;;;;;;15.73;10.52;;;;;;;5.65;100.00;103462.91;10481386;28;20041;-83
2023/12/15 20:50:20;;;;;;;23.80;9.10;;;;;;;5.66;100.00;103463.09;10487709;28;20044;-83
2023/12/15 20:55:20;;;;;;;19.05;9.55;;;;;;;5.70;100.00;103454.88;10487956;28;20135;-83
2023/12/15 21:00:21;;;;;;;20.67;12.27;;;;;;;5.69;100.00;103453.03;10483379;28;20067;-84
2023/12/15 21:05:22;;;;;;;18.15;9.95;;;;;;;5.65;100.00;103445.66;10490189;28;20503;-85
2023/12/15 21:10:22;;;;;;;23.50;11.10;;;;;;;5.67;100.00;103454.56;10472404;28;20127;-84
2023/12/15 21:15:23;;;;;;;20.98;10.23;;;;;;;5.72;100.00;103453.38;10488102;28;20060;-84
2023/12/15 21:20:23;;;;;;;18.48;10.30;;;;;;;5.70;100.00;103454.88;10487447;28;20129;-84
2023/12/15 21:25:24;;;;;;;21.50;10.00;;;;;;;5.69;100.00;103454.69;10469255;28;20041;-85
2023/12/15 21:30:24;;;;;;;19.42;10.93;;;;;;;5.71;100.00;103450.59;10486917;28;20109;-83
2023/12/15 21:35:27;;;;;;;21.48;9.05;;;;;;;5.71;100.00;103455.78;10484259;28;20127;-83
2023/12/15 21:40:28;;;;;;;22.27;11.88;;;;;;;5.70;100.00;103459.16;10450890;28;20119;-82
2023/12/15 21:45:28;;;;;;;20.17;8.75;;;;;;;5.65;100.00;103456.06;10481436;28;20044;-81
2023/12/15 21:50:29;;;;;;;18.58;8.85;;;;;;;5.55;100.00;103451.53;10474486;28;20082;-81
2023/12/15 21:55:29;;;;;;;25.80;10.60;;;;;;;5.50;100.00;103464.78;10474940;28;20067;-81
2023/12/15 22:00:30;;;;;;;26.40;11.13;;;;;;;5.51;100.00;103458.81;10477501;28;20120;-81
2023/12/15 22:05:30;;;;;;;19.65;9.55;;;;;;;5.56;100.00;103455.97;10477573;28;20118;-81
2023/12/15 22:10:32;;;;;;;21.38;11.18;;;;;;;5.57;100.00;103460.41;10454291;28;20040;-81
2023/12/15 22:15:35;;;;;;;23.10;12.40;;;;;;;5.61;100.00;103465.94;10472903;28;20115;-82
2023/12/15 22:20:36;;;;;;;26.27;13.02;;;;;;;5.62;100.00;103467.78;10485744;28;20395;-82
2023/12/15 22:25:36;;;;;;;18.65;10.07;;;;;;;5.65;100.00;103461.25;10510668;28;20050;-82
2023/12/15 22:30:37;;;;;;;25.92;13.48;;;;;;;5.67;100.00;103461.41;10493403;28;20478;-83
2023/12/15 22:35:38;;;;;;;24.25;11.05;;;;;;;5.65;100.00;103461.25;10508398;28;20499;-83